Beatty, NV

3:25 AM PST on January 31, 2015 (GMT -0800)
MesoWest Beatty NV US CEMP | Change Station
CLOSE
Current Station
Personal Weather Station
Location: Beatty, NV
Elevation: 3214 ft
Nearby Weather Stations

Elev 3214 ft 36.91 °N, 116.76 °W | Updated 35 minutes ago

Rain
Rain
46 °F
Feels Like 40 °F
N
13
Wind Variable Wind from North
Gusts 22.0 mph

Today
High -- | Low -- °F
--% Chance of Precip.
Yesterday
High -- | Low -- °F
Precip. -- in
6:50 AM 5:11 PM
Waxing Gibbous, 89% visible
Pressure 29.83 in
Visibility 10.0 miles
Clouds Overcast 3900 ft
Windchill 40 °F
Dew Point 38 °F
Humidity 73%
Rainfall -999.00 in
Snow Depth Not available.
UV 0 out of 12
Pollen 2.70 out of 12
Air Quality Not available.
Flu Activity Not available.
METAR KDRA 311052Z AUTO 09005KT 10SM OVC039 08/06 A2987 RMK AO2 RAE01 SLP099 P0000 T00780056

More Conditions Fewer Conditions

Pressure 29.83 in
Visibility 10.0 miles
Clouds Overcast 3900 ft
Windchill 40 °F
Dew Point 38 °F
Humidity 73%
Rainfall -999.00 in
Snow Depth Not available.
UV 0 out of 12
Pollen 2.70 out of 12
Air Quality Not available.
Flu Activity Not available.
METAR KDRA 311052Z AUTO 09005KT 10SM OVC039 08/06 A2987 RMK AO2 RAE01 SLP099 P0000 T00780056

More Conditions Fewer Conditions

10-Day Weather Forecast

Almanac

Astronomy

Jan. 31, 2015 Rise Set
Actual Time
Civil Twilight
Nautical Twilight
Astronomical Twilight
Moon
Length of Visible Light
Length of Day
Tomorrow will be .
, % of the Moon is Illuminated

Today's Extremes

State Highs State Lows

Community

WunderPhotos

Upload Photos

1,792,032 photos uploaded!

WunderBlogs® & News

Nearby

Air Quality

  Air Quality AQ Index Pollutant
Not available.

Snow Depth

Station Depth Elevation

Earthquake Activity

City Distance Mag. Time & Date
Minimum magnitude displayed is 2.5.

Coastal Water Temperatures

Place Temperature

Nearby Weather Stations